Argyle, Wisconsin
Current Conditions -  °F | °C
As of 8:35 AM on Monday 22 Dec 2014 (Local Time) from KEFT Reporting Station
Haze Haze  
Wind Chill: 25°   Ceiling: 3300
Heat Index: 32°   Visibility: 5mi
Dew Point: 32°   Wind: 8mph
Humidity: 100%   Direction: 110°ESE
Pressure: 29.82"   Gusts: NA
Location:  42.7°N, 89.87°W
Report Text: KEFT 221435Z AUTO 11007KT 5SM BR BKN033 OVC043 00/00 A2982 RMK AO2
Loading
Personal Weather Stations






























Interactive Weather Map New forecast layout! Learn more

10-Day Weather Forecast

Advertisements
Track Severe Weather on mobile